TimeGMT,TemperatureF,Dew PointF,Humidity,Sea Level PressureIn,VisibilityMPH,Wind Direction,Wind SpeedMPH,Gust SpeedMPH,PrecipitationIn,Events,Conditions,WindDirDegrees,DateUTC
12:50 AM,42.8,41.0,93,29.95,6.2,SE,4.6,-,N/A,Rain,Light Rain Showers,130,2012-11-12 00:50:00
1:50 AM,41.0,37.4,87,29.95,6.2,ESE,6.9,-,N/A,Rain,Light Rain Showers,120,2012-11-12 01:50:00
2:50 AM,39.2,37.4,93,29.95,6.2,East,4.6,-,N/A,Rain,Light Rain Showers,100,2012-11-12 02:50:00
3:50 AM,41.0,39.2,93,29.92,6.2,East,6.9,-,N/A,Rain,Light Rain Showers,100,2012-11-12 03:50:00
4:50 AM,42.8,39.2,87,29.89,6.2,ESE,11.5,-,N/A,Rain,Light Rain Showers,120,2012-11-12 04:50:00
5:50 AM,44.6,41.0,87,29.89,6.2,SE,13.8,-,N/A,Rain,Light Rain Showers,140,2012-11-12 05:50:00
6:20 AM,44.6,41.0,87,29.86,6.2,SE,13.8,-,N/A,Rain,Light Rain Showers,130,2012-11-12 06:20:00
6:50 AM,46.4,41.0,81,29.86,6.2,SE,13.8,-,N/A,,Mostly Cloudy,130,2012-11-12 06:50:00
7:20 AM,46.4,42.8,87,29.86,6.2,SE,11.5,-,N/A,Rain,Light Rain Showers,130,2012-11-12 07:20:00
7:50 AM,46.4,42.8,87,29.86,6.2,SE,11.5,-,N/A,Rain,Light Rain Showers,130,2012-11-12 07:50:00
8:50 AM,46.4,44.6,93,29.83,4.3,ESE,6.9,-,N/A,Rain,Light Rain Showers,110,2012-11-12 08:50:00
9:20 AM,46.4,44.6,93,29.83,4.3,ESE,6.9,-,N/A,Rain,Light Rain Showers,110,2012-11-12 09:20:00
9:50 AM,48.2,46.4,93,29.83,4.3,ESE,9.2,-,N/A,Rain,Light Rain Showers,120,2012-11-12 09:50:00
10:20 AM,48.2,46.4,93,29.83,4.3,SSE,10.4,-,N/A,Rain,Light Rain Showers,160,2012-11-12 10:20:00
10:50 AM,48.2,46.4,93,29.83,6.2,SSE,11.5,-,N/A,Rain,Light Rain Showers,150,2012-11-12 10:50:00
11:20 AM,50.0,46.4,87,29.83,6.2,SE,9.2,-,N/A,Rain,Light Rain Showers,140,2012-11-12 11:20:00
11:50 AM,50.0,48.2,94,29.83,6.2,SSE,11.5,-,N/A,Rain,Light Rain Showers,160,2012-11-12 11:50:00
12:20 PM,50.0,48.2,94,29.83,4.3,SSE,10.4,-,N/A,Rain,Light Rain Showers,160,2012-11-12 12:20:00
12:50 PM,51.8,48.2,88,29.83,4.3,South,12.7,-,N/A,,Mostly Cloudy,180,2012-11-12 12:50:00
1:20 PM,51.8,50.0,94,29.83,4.3,South,13.8,-,N/A,Rain,Light Rain,180,2012-11-12 13:20:00
1:50 PM,51.8,50.0,94,29.83,4.3,SSE,10.4,-,N/A,Rain,Light Rain,160,2012-11-12 13:50:00
2:20 PM,51.8,50.0,94,29.83,6.2,SSE,6.9,-,N/A,Rain,Light Rain,160,2012-11-12 14:20:00
2:50 PM,51.8,50.0,94,29.83,4.3,South,4.6,-,N/A,Rain,Light Rain,170,2012-11-12 14:50:00
3:20 PM,51.8,51.8,100,29.83,4.3,South,8.1,-,N/A,Rain,Light Rain,170,2012-11-12 15:20:00
3:50 PM,53.6,51.8,94,29.83,4.3,South,9.2,-,N/A,Rain,Light Rain,180,2012-11-12 15:50:00
4:20 PM,53.6,51.8,94,29.83,6.2,South,8.1,-,N/A,,Mostly Cloudy,190,2012-11-12 16:20:00
4:50 PM,53.6,51.8,94,29.86,6.2,South,8.1,-,N/A,,Mostly Cloudy,190,2012-11-12 16:50:00
5:20 PM,53.6,51.8,94,29.86,6.2,South,8.1,-,N/A,Rain,Light Rain,190,2012-11-12 17:20:00
5:50 PM,55.4,51.8,88,29.86,6.2,SSW,9.2,-,N/A,,Mostly Cloudy,200,2012-11-12 17:50:00
6:20 PM,55.4,51.8,88,29.86,6.2,SSW,10.4,-,N/A,,Mostly Cloudy,200,2012-11-12 18:20:00
6:50 PM,55.4,51.8,88,29.86,6.2,SSW,10.4,-,N/A,Rain,Light Rain,200,2012-11-12 18:50:00
7:20 PM,55.4,51.8,88,29.89,6.2,SSW,12.7,-,N/A,,Mostly Cloudy,200,2012-11-12 19:20:00
7:50 PM,55.4,53.6,94,29.89,6.2,South,12.7,-,N/A,,Mostly Cloudy,190,2012-11-12 19:50:00
8:20 PM,55.4,53.6,94,29.89,6.2,South,11.5,-,N/A,,Mostly Cloudy,190,2012-11-12 20:20:00
8:50 PM,55.4,53.6,94,29.92,6.2,South,8.1,-,N/A,,Mostly Cloudy,190,2012-11-12 20:50:00
9:20 PM,55.4,53.6,94,29.92,6.2,SSW,11.5,-,N/A,,Mostly Cloudy,200,2012-11-12 21:20:00
9:50 PM,55.4,53.6,94,29.92,6.2,South,9.2,-,N/A,,Mostly Cloudy,190,2012-11-12 21:50:00
10:20 PM,55.4,53.6,94,29.92,6.2,SSW,12.7,-,N/A,,Mostly Cloudy,200,2012-11-12 22:20:00
10:50 PM,55.4,51.8,88,29.92,6.2,South,13.8,-,N/A,,Mostly Cloudy,190,2012-11-12 22:50:00
11:20 PM,55.4,51.8,88,29.95,6.2,SSW,10.4,-,N/A,,Scattered Clouds,200,2012-11-12 23:20:00
11:50 PM,55.4,51.8,88,29.95,6.2,SSW,11.5,-,N/A,,Scattered Clouds,200,2012-11-12 23:50:00